Time;durP1;ratioP1;P1;durP2;ratioP2;P2;SDS_P1;SDS_P2;PMS_P1;PMS_P2;Temp;Humidity;BMP_temperature;BMP_pressure;BME280_temperature;BME280_humidity;BME280_pressure;Samples;Min_cycle;Max_cycle;Signal;HPM_P1;HPM_P2
2021/09/06 00:02:35;;;;;;;;;;;11.50;99.90;;;;;;8308948;28;19952;-64
2021/09/06 00:06:38;;;;;;;;;;;11.50;99.90;;;;;;8326230;28;19911;-64
2021/09/06 00:10:40;;;;;;;;;;;11.60;99.90;;;;;;8326163;28;19912;-64
2021/09/06 00:14:40;;;;;;;;;;;11.50;99.90;;;;;;8326088;28;19909;-64
2021/09/06 00:18:41;;;;;;;;;;;11.60;99.90;;;;;;8326416;28;20035;-64
2021/09/06 00:22:41;;;;;;;;;;;11.30;99.90;;;;;;8326185;28;19971;-64
2021/09/06 00:26:42;;;;;;;;;;;11.30;99.90;;;;;;8326258;28;20300;-63
2021/09/06 00:30:42;;;;;;;;;;;11.50;99.90;;;;;;8326541;28;19905;-64
2021/09/06 00:34:43;;;;;;;;;;;11.30;99.90;;;;;;8325878;28;20523;-64
2021/09/06 00:38:43;;;;;;;;;;;11.10;99.90;;;;;;8326108;28;19959;-64
2021/09/06 00:42:44;;;;;;;;;;;11.00;99.90;;;;;;8326049;28;19909;-64
2021/09/06 00:46:46;;;;;;;;;;;11.20;99.90;;;;;;8326246;28;20297;-64
2021/09/06 00:50:47;;;;;;;;;;;11.00;99.90;;;;;;8331896;28;19905;-64
2021/09/06 00:54:48;;;;;;;;;;;11.00;99.90;;;;;;8331900;28;19909;-64
2021/09/06 00:58:50;;;;;;;;;;;11.10;99.90;;;;;;8331607;28;19906;-64
2021/09/06 01:02:51;;;;;;;;;;;11.10;99.90;;;;;;8331761;28;19920;-63
2021/09/06 01:06:51;;;;;;;;;;;11.00;99.90;;;;;;8331271;28;19913;-63
2021/09/06 01:10:52;;;;;;;;;;;11.00;99.90;;;;;;8331434;28;19905;-64
2021/09/06 01:14:52;;;;;;;;;;;10.80;99.90;;;;;;8313397;28;19916;-64
2021/09/06 01:18:53;;;;;;;;;;;10.50;99.90;;;;;;8331124;28;19963;-64
2021/09/06 01:22:53;;;;;;;;;;;10.50;99.90;;;;;;8313016;28;19912;-63
2021/09/06 01:26:53;;;;;;;;;;;10.50;99.90;;;;;;8330659;28;20280;-64
2021/09/06 01:30:54;;;;;;;;;;;10.40;99.90;;;;;;8330799;28;19905;-64
2021/09/06 01:34:54;;;;;;;;;;;10.30;99.90;;;;;;8330434;28;20431;-64
2021/09/06 01:38:55;;;;;;;;;;;10.40;99.90;;;;;;8330480;28;20439;-63
2021/09/06 01:42:55;;;;;;;;;;;10.60;99.90;;;;;;8330596;28;20379;-64
2021/09/06 01:46:56;;;;;;;;;;;10.50;99.90;;;;;;8329876;28;19917;-63
2021/09/06 01:50:56;;;;;;;;;;;10.30;99.90;;;;;;8330175;28;20277;-63
2021/09/06 01:54:57;;;;;;;;;;;10.20;99.90;;;;;;8329874;28;19913;-63
2021/09/06 01:58:57;;;;;;;;;;;10.20;99.90;;;;;;8330069;28;19927;-63
2021/09/06 02:02:57;;;;;;;;;;;10.60;99.90;;;;;;8329893;28;19967;-63
2021/09/06 02:06:58;;;;;;;;;;;10.60;99.90;;;;;;8329485;28;20265;-64
2021/09/06 02:10:58;;;;;;;;;;;10.40;99.90;;;;;;8328626;28;19905;-63
2021/09/06 02:14:59;;;;;;;;;;;10.20;99.90;;;;;;8311457;28;20019;-63
2021/09/06 02:18:59;;;;;;;;;;;10.00;99.90;;;;;;8329249;28;19912;-64
2021/09/06 02:23:00;;;;;;;;;;;10.00;99.90;;;;;;8311535;28;19905;-64
2021/09/06 02:27:00;;;;;;;;;;;10.20;99.90;;;;;;8328796;28;19912;-63
2021/09/06 02:31:01;;;;;;;;;;;10.40;99.90;;;;;;8328993;28;19916;-63
2021/09/06 02:35:01;;;;;;;;;;;10.20;99.90;;;;;;8328611;28;19913;-63
2021/09/06 02:39:02;;;;;;;;;;;10.40;99.90;;;;;;8328361;28;19912;-63
2021/09/06 02:43:03;;;;;;;;;;;10.10;99.90;;;;;;8328154;28;19905;-63
2021/09/06 02:51:04;;;;;;;;;;;10.20;99.90;;;;;;8382174;23;19921;-63
2021/09/06 02:55:04;;;;;;;;;;;10.00;99.90;;;;;;8328062;28;19998;-62
2021/09/06 02:59:05;;;;;;;;;;;9.90;99.90;;;;;;8328156;28;19911;-63
2021/09/06 03:03:05;;;;;;;;;;;9.80;99.90;;;;;;8324041;28;20377;-63
2021/09/06 03:07:06;;;;;;;;;;;9.80;99.90;;;;;;8327755;28;19905;-63
2021/09/06 03:11:06;;;;;;;;;;;10.00;99.90;;;;;;8327661;28;19905;-63
2021/09/06 03:15:07;;;;;;;;;;;10.00;99.90;;;;;;8327709;28;19909;-63
2021/09/06 03:19:07;;;;;;;;;;;9.70;99.90;;;;;;8327657;28;19905;-63
2021/09/06 03:23:08;;;;;;;;;;;9.70;99.90;;;;;;8327432;28;19904;-63
2021/09/06 03:27:08;;;;;;;;;;;9.70;99.90;;;;;;8327045;28;20388;-63
2021/09/06 03:31:09;;;;;;;;;;;9.70;99.90;;;;;;8327218;28;19912;-64
2021/09/06 03:35:12;;;;;;;;;;;9.50;99.90;;;;;;8325714;28;19959;-63
2021/09/06 03:39:13;;;;;;;;;;;9.30;99.90;;;;;;8294292;28;19944;-63
2021/09/06 03:43:13;;;;;;;;;;;9.30;99.90;;;;;;8294388;28;19932;-63
2021/09/06 03:47:14;;;;;;;;;;;9.30;99.90;;;;;;8300964;28;19979;-63
2021/09/06 03:51:14;;;;;;;;;;;9.50;99.90;;;;;;8308690;28;19913;-64
2021/09/06 03:55:15;;;;;;;;;;;9.40;99.90;;;;;;8309052;28;19921;-64
2021/09/06 03:59:17;;;;;;;;;;;9.60;99.90;;;;;;8317113;28;20016;-64
2021/09/06 04:03:18;;;;;;;;;;;9.40;99.90;;;;;;8308844;28;20394;-64
2021/09/06 04:07:18;;;;;;;;;;;9.30;99.90;;;;;;8322570;28;19963;-64
2021/09/06 04:11:19;;;;;;;;;;;9.30;99.90;;;;;;8317158;28;19964;-64
2021/09/06 04:15:20;;;;;;;;;;;;;;;;;;8318641;28;20301;-64
2021/09/06 04:19:20;;;;;;;;;;;9.00;99.90;;;;;;8298966;28;19917;-64
2021/09/06 04:23:21;;;;;;;;;;;9.20;99.90;;;;;;8322386;28;20400;-64
2021/09/06 04:27:21;;;;;;;;;;;9.20;99.90;;;;;;8332372;28;19909;-64
2021/09/06 04:31:22;;;;;;;;;;;8.90;99.90;;;;;;8329281;28;19920;-64
2021/09/06 04:35:22;;;;;;;;;;;8.80;99.90;;;;;;8332063;28;19909;-65
2021/09/06 04:39:23;;;;;;;;;;;8.90;99.90;;;;;;8307034;28;19909;-64
2021/09/06 04:43:23;;;;;;;;;;;8.90;99.90;;;;;;8299569;28;20352;-64
2021/09/06 04:47:23;;;;;;;;;;;8.60;99.90;;;;;;8299009;28;19920;-64
2021/09/06 04:51:24;;;;;;;;;;;8.50;99.90;;;;;;8299088;28;19913;-64
2021/09/06 04:55:24;;;;;;;;;;;8.50;99.90;;;;;;8298800;28;20431;-64
2021/09/06 04:59:25;;;;;;;;;;;8.80;99.90;;;;;;8297866;28;19988;-64
2021/09/06 05:03:25;;;;;;;;;;;9.00;99.90;;;;;;8298526;28;19905;-64
2021/09/06 05:07:26;;;;;;;;;;;8.70;99.90;;;;;;8297669;28;19909;-64
2021/09/06 05:11:28;;;;;;;;;;;8.90;99.90;;;;;;8298771;28;19992;-64
2021/09/06 05:15:29;;;;;;;;;;;9.00;99.90;;;;;;8298246;28;19909;-63
2021/09/06 05:19:29;;;;;;;;;;;9.30;99.90;;;;;;8298482;28;19943;-64
2021/09/06 05:23:30;;;;;;;;;;;9.70;99.90;;;;;;8280646;28;19912;-64
2021/09/06 05:27:30;;;;;;;;;;;9.80;99.90;;;;;;8297793;28;19905;-64
2021/09/06 05:31:30;;;;;;;;;;;10.00;99.90;;;;;;8298131;28;19906;-64
2021/09/06 05:35:31;;;;;;;;;;;10.20;99.90;;;;;;8297330;28;19913;-65
2021/09/06 05:39:31;;;;;;;;;;;10.30;99.90;;;;;;8297987;28;19910;-64
2021/09/06 05:43:32;;;;;;;;;;;10.40;99.90;;;;;;8297822;28;19912;-64
2021/09/06 05:47:33;;;;;;;;;;;10.60;99.90;;;;;;8299569;28;19916;-65
2021/09/06 05:51:33;;;;;;;;;;;10.70;99.90;;;;;;8300021;28;19917;-64
2021/09/06 05:55:33;;;;;;;;;;;10.80;99.90;;;;;;8297159;28;19917;-64
2021/09/06 05:59:34;;;;;;;;;;;10.90;99.90;;;;;;8279776;28;19985;-64
2021/09/06 06:03:34;;;;;;;;;;;11.20;99.90;;;;;;8297236;28;19916;-64
2021/09/06 06:07:35;;;;;;;;;;;11.50;99.90;;;;;;8296296;28;19909;-64
2021/09/06 06:11:38;;;;;;;;;;;11.60;99.90;;;;;;8308802;28;19913;-64
2021/09/06 06:15:38;;;;;;;;;;;11.70;99.90;;;;;;8310823;28;19966;-64
2021/09/06 06:19:38;;;;;;;;;;;11.90;99.90;;;;;;8308314;28;20301;-65
2021/09/06 06:23:39;;;;;;;;;;;12.10;99.90;;;;;;8335734;28;20507;-64
2021/09/06 06:27:39;;;;;;;;;;;12.40;99.90;;;;;;8347502;28;19917;-64
2021/09/06 06:31:40;;;;;;;;;;;12.60;99.90;;;;;;8316522;28;19909;-65
2021/09/06 06:35:40;;;;;;;;;;;12.80;99.90;;;;;;8300868;28;19915;-65
2021/09/06 06:39:41;;;;;;;;;;;13.00;99.90;;;;;;8295950;28;20377;-64
2021/09/06 06:43:42;;;;;;;;;;;13.20;99.90;;;;;;8295691;28;19916;-65
2021/09/06 06:47:42;;;;;;;;;;;13.40;99.90;;;;;;8294163;28;19918;-64
2021/09/06 06:51:43;;;;;;;;;;;13.50;99.90;;;;;;8295566;28;19912;-65
2021/09/06 06:55:43;;;;;;;;;;;13.70;99.90;;;;;;8295010;28;19924;-65
2021/09/06 06:59:44;;;;;;;;;;;14.00;99.90;;;;;;8295342;28;19917;-65
2021/09/06 07:03:45;;;;;;;;;;;14.20;99.90;;;;;;8295015;28;19909;-65
2021/09/06 07:07:45;;;;;;;;;;;14.50;99.90;;;;;;8276705;28;19905;-65
2021/09/06 07:11:46;;;;;;;;;;;14.70;99.90;;;;;;8294763;28;19912;-64
2021/09/06 07:15:46;;;;;;;;;;;14.90;99.90;;;;;;8296193;28;19913;-64
2021/09/06 07:19:47;;;;;;;;;;;15.10;99.90;;;;;;8275202;28;19967;-64
2021/09/06 07:23:47;;;;;;;;;;;15.40;99.90;;;;;;8294677;28;19906;-65
2021/09/06 07:27:48;;;;;;;;;;;15.50;99.90;;;;;;8293608;28;19906;-65
2021/09/06 07:31:48;;;;;;;;;;;15.80;99.90;;;;;;8294373;28;19905;-64
2021/09/06 07:35:49;;;;;;;;;;;16.10;99.90;;;;;;8293847;28;19956;-65
2021/09/06 07:39:49;;;;;;;;;;;16.30;99.90;;;;;;8307307;28;19916;-65
2021/09/06 07:43:50;;;;;;;;;;;16.50;99.90;;;;;;8306758;28;19916;-65
2021/09/06 07:47:50;;;;;;;;;;;16.70;99.90;;;;;;8308626;28;19999;-64
2021/09/06 07:51:53;;;;;;;;;;;16.90;99.90;;;;;;8299003;28;19931;-69
2021/09/06 07:55:54;;;;;;;;;;;17.00;99.90;;;;;;8297757;28;19955;-68
2021/09/06 07:59:54;;;;;;;;;;;17.30;99.90;;;;;;8293889;28;19909;-67
2021/09/06 08:03:55;;;;;;;;;;;17.30;99.90;;;;;;8308009;28;20003;-67
2021/09/06 08:07:56;;;;;;;;;;;17.70;99.90;;;;;;8314938;28;19913;-67
2021/09/06 08:11:56;;;;;;;;;;;17.80;99.90;;;;;;8306271;28;19905;-67
2021/09/06 08:15:57;;;;;;;;;;;18.00;99.90;;;;;;8324885;28;19917;-67
2021/09/06 08:19:57;;;;;;;;;;;18.20;99.90;;;;;;8313811;28;19932;-68
2021/09/06 08:23:58;;;;;;;;;;;18.40;99.90;;;;;;8299911;28;19988;-67
2021/09/06 08:27:58;;;;;;;;;;;18.70;99.90;;;;;;8298290;28;20389;-67
2021/09/06 08:31:59;;;;;;;;;;;18.80;99.90;;;;;;8311749;28;19913;-67
2021/09/06 08:35:59;;;;;;;;;;;19.20;99.90;;;;;;8294076;28;19917;-67
2021/09/06 08:40:00;;;;;;;;;;;19.30;99.90;;;;;;8307672;28;19913;-67
2021/09/06 08:44:01;;;;;;;;;;;19.40;99.90;;;;;;8322517;28;19939;-68
2021/09/06 08:48:02;;;;;;;;;;;19.60;99.90;;;;;;8344979;23;19908;-67
2021/09/06 08:52:02;;;;;;;;;;;19.90;99.90;;;;;;8290845;28;19964;-68
2021/09/06 08:56:03;;;;;;;;;;;20.10;99.90;;;;;;8275085;28;20000;-67
2021/09/06 09:00:05;;;;;;;;;;;20.40;99.90;;;;;;8292393;28;19916;-67
2021/09/06 09:04:21;;;;;;;;;;;20.60;99.90;;;;;;8292147;28;19909;-68
2021/09/06 09:08:22;;;;;;;;;;;20.60;99.90;;;;;;8275497;28;19917;-67
2021/09/06 09:12:25;;;;;;;;;;;20.90;99.90;;;;;;8297992;28;19937;-67
2021/09/06 09:16:26;;;;;;;;;;;21.30;99.90;;;;;;8287504;28;19921;-67
2021/09/06 09:20:42;;;;;;;;;;;21.60;99.90;;;;;;8296160;28;20425;-64
2021/09/06 09:24:43;;;;;;;;;;;21.80;99.90;;;;;;8298094;28;19913;-65
2021/09/06 09:28:44;;;;;;;;;;;21.90;99.90;;;;;;8279325;28;19964;-65
2021/09/06 09:32:45;;;;;;;;;;;22.10;99.90;;;;;;8297916;28;19971;-65
2021/09/06 09:36:46;;;;;;;;;;;22.20;99.90;;;;;;8296595;28;20402;-65
2021/09/06 09:40:46;;;;;;;;;;;22.30;99.90;;;;;;8297584;28;20373;-65
2021/09/06 09:44:48;;;;;;;;;;;22.30;99.90;;;;;;8296797;28;19909;-65
2021/09/06 09:48:48;;;;;;;;;;;22.40;99.90;;;;;;8296610;28;19960;-65
2021/09/06 09:52:51;;;;;;;;;;;22.60;99.90;;;;;;8279183;28;20259;-65
2021/09/06 09:56:52;;;;;;;;;;;22.60;99.90;;;;;;8295513;28;20365;-65
2021/09/06 10:00:53;;;;;;;;;;;22.70;99.90;;;;;;8296037;28;19914;-65
2021/09/06 10:04:55;;;;;;;;;;;22.70;99.90;;;;;;8296327;28;19952;-65
2021/09/06 10:08:55;;;;;;;;;;;22.90;99.90;;;;;;8296669;28;20012;-65
2021/09/06 10:13:08;;;;;;;;;;;22.90;99.90;;;;;;8295646;28;19909;-65
2021/09/06 10:17:08;;;;;;;;;;;22.90;99.90;;;;;;8292363;28;19913;-65
2021/09/06 10:21:10;;;;;;;;;;;23.20;99.90;;;;;;8293573;28;19942;-65
2021/09/06 10:25:12;;;;;;;;;;;23.30;99.90;;;;;;8295412;28;19909;-65
2021/09/06 10:29:17;;;;;;;;;;;23.50;99.90;;;;;;8295171;28;19992;-65
2021/09/06 10:33:22;;;;;;;;;;;23.80;99.90;;;;;;8294967;28;19937;-65
2021/09/06 10:37:27;;;;;;;;;;;23.90;99.90;;;;;;8293849;28;19961;-65
2021/09/06 10:41:28;;;;;;;;;;;24.20;99.90;;;;;;8292217;28;19905;-65
2021/09/06 10:45:29;;;;;;;;;;;24.60;99.90;;;;;;8276009;28;19960;-65
2021/09/06 10:49:30;;;;;;;;;;;24.40;99.90;;;;;;8293740;28;19953;-65
2021/09/06 10:53:31;;;;;;;;;;;24.20;99.90;;;;;;8293110;28;19910;-66
2021/09/06 10:57:35;;;;;;;;;;;24.10;98.40;;;;;;8293951;28;19913;-66
2021/09/06 11:01:37;;;;;;;;;;;24.80;97.60;;;;;;8275483;28;19912;-66
2021/09/06 11:05:37;;;;;;;;;;;28.00;90.10;;;;;;8293085;28;19933;-66
2021/09/06 11:09:38;;;;;;;;;;;31.00;74.30;;;;;;8294133;28;19921;-66
2021/09/06 11:13:39;;;;;;;;;;;33.70;58.60;;;;;;8294149;28;19921;-66
2021/09/06 11:17:40;;;;;;;;;;;34.00;57.70;;;;;;8290930;28;19905;-67
2021/09/06 11:21:41;;;;;;;;;;;36.00;50.90;;;;;;8293747;28;19912;-66
2021/09/06 11:25:42;;;;;;;;;;;37.80;44.70;;;;;;8293098;28;20016;-66
2021/09/06 11:29:42;;;;;;;;;;;38.10;43.60;;;;;;8293228;28;20369;-67
2021/09/06 11:33:43;;;;;;;;;;;38.90;42.80;;;;;;8292662;28;19917;-67
2021/09/06 11:37:43;;;;;;;;;;;40.40;40.00;;;;;;8267952;28;20021;-67
2021/09/06 11:41:44;;;;;;;;;;;41.20;37.20;;;;;;8291689;28;19912;-66
2021/09/06 11:45:44;;;;;;;;;;;40.30;37.00;;;;;;8291617;28;19906;-66
2021/09/06 11:49:54;;;;;;;;;;;39.70;38.90;;;;;;8292584;28;20385;-67
2021/09/06 11:53:55;;;;;;;;;;;40.90;36.50;;;;;;8293548;28;19916;-67
2021/09/06 11:58:09;;;;;;;;;;;42.40;35.40;;;;;;8275080;28;20373;-67
2021/09/06 12:02:10;;;;;;;;;;;42.90;33.10;;;;;;8291723;28;19979;-68
2021/09/06 12:06:13;;;;;;;;;;;43.70;32.90;;;;;;8292656;28;19945;-67
2021/09/06 12:10:43;;;;;;;;;;;44.60;29.70;;;;;;8291332;28;19916;-67
2021/09/06 12:14:44;;;;;;;;;;;;;;;;;;8260313;28;19928;-66
2021/09/06 12:18:47;;;;;;;;;;;43.70;29.10;;;;;;8286086;28;19968;-66
2021/09/06 12:22:54;;;;;;;;;;;41.80;31.00;;;;;;8270647;28;20382;-66
2021/09/06 12:26:54;;;;;;;;;;;41.80;31.40;;;;;;8290304;28;19909;-66
2021/09/06 12:30:56;;;;;;;;;;;42.80;29.60;;;;;;8292258;28;20288;-66
2021/09/06 12:34:57;;;;;;;;;;;41.80;27.50;;;;;;8274242;28;19913;-66
2021/09/06 12:38:57;;;;;;;;;;;39.70;29.40;;;;;;8291773;28;20469;-67
2021/09/06 12:42:57;;;;;;;;;;;40.90;29.50;;;;;;8293741;28;19906;-67
2021/09/06 12:46:58;;;;;;;;;;;42.90;28.60;;;;;;8298956;28;19909;-66
2021/09/06 12:50:59;;;;;;;;;;;41.30;29.50;;;;;;8297218;28;20396;-67
2021/09/06 12:54:59;;;;;;;;;;;40.20;30.00;;;;;;8298134;28;20007;-68
2021/09/06 12:58:59;;;;;;;;;;;42.60;28.90;;;;;;8298506;28;19913;-67
2021/09/06 13:03:02;;;;;;;;;;;44.30;27.30;;;;;;8297943;28;19952;-67
2021/09/06 13:07:02;;;;;;;;;;;44.90;26.40;;;;;;8297719;28;19909;-67
2021/09/06 13:11:03;;;;;;;;;;;45.30;27.10;;;;;;8294447;28;19916;-67
2021/09/06 13:15:04;;;;;;;;;;;45.70;27.00;;;;;;8297001;28;19967;-67
2021/09/06 13:19:05;;;;;;;;;;;45.30;26.10;;;;;;8280054;28;19913;-67
2021/09/06 13:23:09;;;;;;;;;;;46.10;25.60;;;;;;8296853;28;19993;-67
2021/09/06 13:27:10;;;;;;;;;;;46.70;25.30;;;;;;8296758;28;19999;-67
2021/09/06 13:31:12;;;;;;;;;;;48.00;24.90;;;;;;8297043;28;19913;-67
2021/09/06 13:35:12;;;;;;;;;;;48.00;23.90;;;;;;8296929;28;19990;-66
2021/09/06 13:39:13;;;;;;;;;;;45.80;24.90;;;;;;8297088;28;19906;-66
2021/09/06 13:43:13;;;;;;;;;;;42.90;27.00;;;;;;8294011;28;20526;-66
2021/09/06 13:47:13;;;;;;;;;;;44.10;26.40;;;;;;8294683;28;19905;-67
2021/09/06 13:51:14;;;;;;;;;;;46.50;25.90;;;;;;8294120;28;19917;-67
2021/09/06 13:55:14;;;;;;;;;;;45.50;24.90;;;;;;8293187;28;19917;-66
2021/09/06 13:59:15;;;;;;;;;;;44.20;26.10;;;;;;8296307;28;19909;-67
2021/09/06 14:03:15;;;;;;;;;;;45.90;25.90;;;;;;8295115;28;19910;-67
2021/09/06 14:07:16;;;;;;;;;;;46.40;25.00;;;;;;8296135;28;20360;-66
2021/09/06 14:11:16;;;;;;;;;;;43.80;27.70;;;;;;8294891;28;19916;-66
2021/09/06 14:15:17;;;;;;;;;;;44.10;27.60;;;;;;8278213;28;20011;-66
2021/09/06 14:19:17;;;;;;;;;;;45.80;26.80;;;;;;8278401;28;19905;-66
2021/09/06 14:23:18;;;;;;;;;;;46.80;25.10;;;;;;8295711;28;19917;-66
2021/09/06 14:27:18;;;;;;;;;;;46.50;24.80;;;;;;8293586;28;19906;-66
2021/09/06 14:31:20;;;;;;;;;;;47.10;25.00;;;;;;8293481;28;19906;-66
2021/09/06 14:35:20;;;;;;;;;;;44.30;26.00;;;;;;8293121;28;19920;-65
2021/09/06 14:39:21;;;;;;;;;;;41.90;27.30;;;;;;8293434;28;19905;-66
2021/09/06 14:43:21;;;;;;;;;;;42.40;28.40;;;;;;8278282;28;19920;-65
2021/09/06 14:47:22;;;;;;;;;;;42.50;27.60;;;;;;8295303;28;19929;-67
2021/09/06 14:51:22;;;;;;;;;;;43.50;27.50;;;;;;8295720;28;19995;-66
2021/09/06 14:55:23;;;;;;;;;;;45.90;25.70;;;;;;8295496;28;19971;-66
2021/09/06 14:59:23;;;;;;;;;;;46.40;25.00;;;;;;8295589;28;19912;-66
2021/09/06 15:03:24;;;;;;;;;;;45.70;25.30;;;;;;8295392;28;20336;-66
2021/09/06 15:07:24;;;;;;;;;;;45.60;26.80;;;;;;8294557;28;19905;-66
2021/09/06 15:11:25;;;;;;;;;;;45.60;26.70;;;;;;8294968;28;20296;-66
2021/09/06 15:15:26;;;;;;;;;;;44.00;25.80;;;;;;8295228;28;19916;-65
2021/09/06 15:19:26;;;;;;;;;;;41.80;27.30;;;;;;8277889;28;19905;-66
2021/09/06 15:23:28;;;;;;;;;;;40.00;30.00;;;;;;8295220;28;19905;-67
2021/09/06 15:27:32;;;;;;;;;;;39.70;31.10;;;;;;8294730;28;19912;-66
2021/09/06 15:31:37;;;;;;;;;;;39.20;31.50;;;;;;8294649;28;19994;-66
2021/09/06 15:35:37;;;;;;;;;;;39.10;31.60;;;;;;8294427;28;20377;-66
2021/09/06 15:39:38;;;;;;;;;;;39.30;31.90;;;;;;8294530;28;19905;-66
2021/09/06 15:43:41;;;;;;;;;;;39.00;30.40;;;;;;8294178;28;19912;-66
2021/09/06 15:47:41;;;;;;;;;;;39.00;31.40;;;;;;8276162;28;20274;-67
2021/09/06 15:51:42;;;;;;;;;;;39.30;30.30;;;;;;8293836;28;19917;-66
2021/09/06 15:55:42;;;;;;;;;;;39.70;30.00;;;;;;8276355;28;19967;-66
2021/09/06 15:59:43;;;;;;;;;;;39.50;29.30;;;;;;8293883;28;19934;-66
2021/09/06 16:03:43;;;;;;;;;;;39.90;29.30;;;;;;8293651;28;19948;-66
2021/09/06 16:07:44;;;;;;;;;;;39.90;29.90;;;;;;8275929;28;19913;-65
2021/09/06 16:11:44;;;;;;;;;;;40.00;30.40;;;;;;8293206;28;20611;-66
2021/09/06 16:15:45;;;;;;;;;;;40.60;30.90;;;;;;8293498;28;19983;-65
2021/09/06 16:19:45;;;;;;;;;;;40.00;31.00;;;;;;8281770;28;19913;-66
2021/09/06 16:23:46;;;;;;;;;;;40.00;31.80;;;;;;8300335;28;19912;-65
2021/09/06 16:27:46;;;;;;;;;;;39.70;30.80;;;;;;8282217;28;19910;-65
2021/09/06 16:31:47;;;;;;;;;;;39.60;41.60;;;;;;8300154;28;20385;-65
2021/09/06 16:35:47;;;;;;;;;;;39.00;41.40;;;;;;8299748;28;19917;-66
2021/09/06 16:39:48;;;;;;;;;;;39.00;39.50;;;;;;8300010;28;20400;-65
2021/09/06 16:43:48;;;;;;;;;;;38.90;39.50;;;;;;8299623;28;20633;-66
2021/09/06 16:47:49;;;;;;;;;;;;;;;;;;8299046;28;20392;-65
2021/09/06 16:51:50;;;;;;;;;;;;;;;;;;8300004;28;19913;-67
2021/09/06 16:55:52;;;;;;;;;;;34.50;50.00;;;;;;8299399;28;19915;-66
2021/09/06 16:59:52;;;;;;;;;;;32.40;41.00;;;;;;8281674;28;19906;-66
2021/09/06 17:03:53;;;;;;;;;;;30.00;44.90;;;;;;8298900;28;19912;-65
2021/09/06 17:07:55;;;;;;;;;;;28.00;49.40;;;;;;8298573;28;19906;-64
2021/09/06 17:11:56;;;;;;;;;;;26.40;53.00;;;;;;8297525;28;20388;-65
2021/09/06 17:15:56;;;;;;;;;;;25.10;56.60;;;;;;8297320;28;19960;-68
2021/09/06 17:19:57;;;;;;;;;;;24.60;58.60;;;;;;8279611;28;19909;-68
2021/09/06 17:24:00;;;;;;;;;;;24.10;62.40;;;;;;8297227;28;19909;-68
2021/09/06 17:28:00;;;;;;;;;;;23.50;67.20;;;;;;8278677;28;19916;-71
2021/09/06 17:32:01;;;;;;;;;;;22.80;71.00;;;;;;8296382;28;19917;-68
2021/09/06 17:36:02;;;;;;;;;;;22.30;73.40;;;;;;8282786;28;19913;-68
2021/09/06 17:40:04;;;;;;;;;;;21.80;75.50;;;;;;8297063;28;19913;-68
2021/09/06 17:44:04;;;;;;;;;;;21.20;82.00;;;;;;8293743;28;19909;-68
2021/09/06 17:48:05;;;;;;;;;;;20.70;87.90;;;;;;8296927;28;20203;-67
2021/09/06 17:52:06;;;;;;;;;;;20.40;92.40;;;;;;8297616;28;20278;-68
2021/09/06 17:56:06;;;;;;;;;;;20.10;96.00;;;;;;8295501;28;19955;-68
2021/09/06 18:00:07;;;;;;;;;;;19.80;99.90;;;;;;8292461;28;19916;-69
2021/09/06 18:04:08;;;;;;;;;;;19.40;99.90;;;;;;8278297;28;19925;-70
2021/09/06 18:08:08;;;;;;;;;;;19.20;99.90;;;;;;8278278;28;20336;-69
2021/09/06 18:12:10;;;;;;;;;;;19.10;99.90;;;;;;8276335;28;19909;-69
2021/09/06 18:16:10;;;;;;;;;;;19.10;99.90;;;;;;8283800;28;19913;-69
2021/09/06 18:20:11;;;;;;;;;;;18.90;99.90;;;;;;8282524;28;19957;-70
2021/09/06 18:24:12;;;;;;;;;;;18.50;99.90;;;;;;8277604;28;19910;-68
2021/09/06 18:28:12;;;;;;;;;;;18.50;99.90;;;;;;8275810;28;19953;-69
2021/09/06 18:32:13;;;;;;;;;;;18.20;99.90;;;;;;8272908;28;19914;-68
2021/09/06 18:36:13;;;;;;;;;;;17.90;99.90;;;;;;8283982;28;19909;-68
2021/09/06 18:40:14;;;;;;;;;;;17.80;99.90;;;;;;8292401;28;19913;-68
2021/09/06 18:44:14;;;;;;;;;;;17.30;99.90;;;;;;8275882;28;20393;-68
2021/09/06 18:48:15;;;;;;;;;;;17.20;99.90;;;;;;8276646;28;19916;-69
2021/09/06 18:52:17;;;;;;;;;;;17.10;99.90;;;;;;8292401;28;19909;-68
2021/09/06 18:56:18;;;;;;;;;;;17.00;99.90;;;;;;8294318;28;20393;-68
2021/09/06 19:00:19;;;;;;;;;;;16.90;99.90;;;;;;8267779;28;20389;-66
2021/09/06 19:04:20;;;;;;;;;;;16.80;99.90;;;;;;8266012;28;19910;-66
2021/09/06 19:08:21;;;;;;;;;;;16.60;99.90;;;;;;8278788;28;19917;-66
2021/09/06 19:12:21;;;;;;;;;;;16.30;99.90;;;;;;8277554;28;20258;-66
2021/09/06 19:16:22;;;;;;;;;;;16.20;99.90;;;;;;8274719;28;19975;-66
2021/09/06 19:20:23;;;;;;;;;;;16.30;99.90;;;;;;8283273;28;19916;-65
2021/09/06 19:24:23;;;;;;;;;;;16.20;99.90;;;;;;8264397;28;19910;-66
2021/09/06 19:28:25;;;;;;;;;;;15.70;99.90;;;;;;8263470;28;19921;-65
2021/09/06 19:32:26;;;;;;;;;;;15.80;99.90;;;;;;8271374;28;20460;-66
2021/09/06 19:36:28;;;;;;;;;;;15.80;99.90;;;;;;8286280;28;20069;-66
2021/09/06 19:40:28;;;;;;;;;;;15.50;99.90;;;;;;8274664;28;19967;-66
2021/09/06 19:44:29;;;;;;;;;;;15.30;99.90;;;;;;8291972;28;20382;-66
2021/09/06 19:48:29;;;;;;;;;;;15.30;99.90;;;;;;8274412;28;20004;-66
2021/09/06 19:52:30;;;;;;;;;;;;;;;;;;8291873;28;19910;-66
2021/09/06 19:56:31;;;;;;;;;;;14.80;99.90;;;;;;8283962;28;20298;-66
2021/09/06 20:00:31;;;;;;;;;;;15.20;99.90;;;;;;8291959;28;19909;-66
2021/09/06 20:04:32;;;;;;;;;;;14.70;99.90;;;;;;8290301;28;20398;-66
2021/09/06 20:08:32;;;;;;;;;;;14.60;99.90;;;;;;8290483;28;19913;-66
2021/09/06 20:12:33;;;;;;;;;;;14.90;99.90;;;;;;8289614;28;19951;-66
2021/09/06 20:16:34;;;;;;;;;;;14.90;99.90;;;;;;8263516;28;19979;-66
2021/09/06 20:20:34;;;;;;;;;;;14.90;99.90;;;;;;8273373;28;20008;-66
2021/09/06 20:24:35;;;;;;;;;;;14.70;99.90;;;;;;8273360;28;19905;-66
2021/09/06 20:28:36;;;;;;;;;;;14.70;99.90;;;;;;8291729;28;19913;-66
2021/09/06 20:32:37;;;;;;;;;;;14.50;99.90;;;;;;8293100;28;20378;-66
2021/09/06 20:36:38;;;;;;;;;;;14.50;99.90;;;;;;8292815;28;19964;-66
2021/09/06 20:40:38;;;;;;;;;;;14.10;99.90;;;;;;8292928;28;20332;-66
2021/09/06 20:44:39;;;;;;;;;;;14.10;99.90;;;;;;8292966;28;20381;-66
2021/09/06 20:48:39;;;;;;;;;;;13.90;99.90;;;;;;8275286;28;19967;-66
2021/09/06 20:52:40;;;;;;;;;;;13.90;99.90;;;;;;8327116;23;19921;-66
2021/09/06 20:56:41;;;;;;;;;;;13.70;99.90;;;;;;8260187;28;19917;-66
2021/09/06 21:00:42;;;;;;;;;;;13.80;99.90;;;;;;8243098;28;19912;-66
2021/09/06 21:04:43;;;;;;;;;;;13.60;99.90;;;;;;8262269;28;20528;-66
2021/09/06 21:08:43;;;;;;;;;;;13.60;99.90;;;;;;8248991;28;19913;-66
2021/09/06 21:12:44;;;;;;;;;;;13.70;99.90;;;;;;8266082;28;19912;-66
2021/09/06 21:16:44;;;;;;;;;;;13.90;99.90;;;;;;8266126;28;20286;-66
2021/09/06 21:20:44;;;;;;;;;;;13.60;99.90;;;;;;8266012;28;20322;-66
2021/09/06 21:24:45;;;;;;;;;;;13.50;99.90;;;;;;8265966;28;20004;-66
2021/09/06 21:28:46;;;;;;;;;;;13.30;99.90;;;;;;8266117;28;19906;-66
2021/09/06 21:32:46;;;;;;;;;;;13.30;99.90;;;;;;8265786;28;20552;-66
2021/09/06 21:36:47;;;;;;;;;;;13.10;99.90;;;;;;8248215;28;19918;-66
2021/09/06 21:40:48;;;;;;;;;;;13.00;99.90;;;;;;8266037;28;19909;-66
2021/09/06 21:44:48;;;;;;;;;;;13.00;99.90;;;;;;8265308;28;19917;-66
2021/09/06 21:48:49;;;;;;;;;;;13.00;99.90;;;;;;8247867;28;19949;-66
2021/09/06 21:52:49;;;;;;;;;;;12.90;99.90;;;;;;8265120;28;19918;-66
2021/09/06 21:56:50;;;;;;;;;;;12.80;99.90;;;;;;8264886;28;19976;-66
2021/09/06 22:00:50;;;;;;;;;;;12.80;99.90;;;;;;8247430;28;19956;-66
2021/09/06 22:04:50;;;;;;;;;;;12.80;99.90;;;;;;8264801;28;19910;-66
2021/09/06 22:08:51;;;;;;;;;;;12.70;99.90;;;;;;8264864;28;19952;-66
2021/09/06 22:12:51;;;;;;;;;;;12.60;99.90;;;;;;8264464;28;19910;-66
2021/09/06 22:16:52;;;;;;;;;;;12.60;99.90;;;;;;8263984;28;19968;-66
2021/09/06 22:20:52;;;;;;;;;;;12.60;99.90;;;;;;8264149;28;19914;-66
2021/09/06 22:24:53;;;;;;;;;;;;;;;;;;8264180;28;20328;-66
2021/09/06 22:28:54;;;;;;;;;;;13.00;99.90;;;;;;8264142;28;19913;-66
2021/09/06 22:32:54;;;;;;;;;;;12.70;99.90;;;;;;8263793;28;19906;-66
2021/09/06 22:36:54;;;;;;;;;;;12.60;99.90;;;;;;8263522;28;19910;-67
2021/09/06 22:40:55;;;;;;;;;;;12.50;99.90;;;;;;8263917;28;19960;-67
2021/09/06 22:44:56;;;;;;;;;;;12.30;99.90;;;;;;8245952;28;19941;-66
2021/09/06 22:48:56;;;;;;;;;;;12.30;99.90;;;;;;8263296;28;19964;-66
2021/09/06 22:52:56;;;;;;;;;;;12.60;99.90;;;;;;8262884;28;19924;-66
2021/09/06 22:56:57;;;;;;;;;;;12.60;99.90;;;;;;8262423;28;19917;-66
2021/09/06 23:00:57;;;;;;;;;;;12.50;99.90;;;;;;8263148;28;19960;-66
2021/09/06 23:04:58;;;;;;;;;;;12.10;99.90;;;;;;8262736;28;19910;-66
2021/09/06 23:08:58;;;;;;;;;;;12.10;99.90;;;;;;8262626;28;19906;-66
2021/09/06 23:12:59;;;;;;;;;;;12.10;99.90;;;;;;8262681;28;20301;-66
2021/09/06 23:16:59;;;;;;;;;;;12.20;99.90;;;;;;8244858;28;20421;-66
2021/09/06 23:21:00;;;;;;;;;;;11.90;99.90;;;;;;8262420;28;19909;-66
2021/09/06 23:25:00;;;;;;;;;;;11.70;99.90;;;;;;8262262;28;19909;-66
2021/09/06 23:29:01;;;;;;;;;;;11.60;99.90;;;;;;8244494;28;20056;-67
2021/09/06 23:33:01;;;;;;;;;;;11.60;99.90;;;;;;8261788;28;19927;-66